Time;durP1;ratioP1;P1;durP2;ratioP2;P2;SDS_P1;SDS_P2;PMS_P1;PMS_P2;Temp;Humidity;BMP_temperature;BMP_pressure;BME280_temperature;BME280_humidity;BME280_pressure;Samples;Min_cycle;Max_cycle;Signal;HPM_P1;HPM_P2
2023/10/27 00:00:44;;;;;;;5.73;1.50;;;11.50;99.90;;;;;;4997457;28;20717;-82
2023/10/27 00:03:10;;;;;;;3.03;1.03;;;;;;;;;;5005398;28;20217;-82
2023/10/27 00:05:36;;;;;;;3.60;1.27;;;;;;;;;;4996166;28;20187;-81
2023/10/27 00:08:02;;;;;;;2.87;0.93;;;;;;;;;;4994383;28;20576;-84
2023/10/27 00:10:28;;;;;;;0.90;0.67;;;11.50;99.90;;;;;;4987087;28;20583;-82
2023/10/27 00:12:54;;;;;;;2.00;1.13;;;;;;;;;;4994982;28;20473;-84
2023/10/27 00:15:20;;;;;;;2.30;1.07;;;11.50;99.90;;;;;;4996926;28;20734;-81
2023/10/27 00:17:46;;;;;;;3.05;1.45;;;11.50;99.90;;;;;;4999346;28;20453;-80
2023/10/27 00:20:12;;;;;;;1.23;0.93;;;11.50;99.90;;;;;;4992331;28;20205;-82
2023/10/27 00:22:38;;;;;;;4.28;1.70;;;;;;;;;;4994849;28;20207;-82
2023/10/27 00:25:04;;;;;;;1.23;0.97;;;;;;;;;;5014474;28;20243;-85
2023/10/27 00:27:29;;;;;;;1.43;1.20;;;11.50;99.90;;;;;;4997882;28;20453;-82
2023/10/27 00:29:55;;;;;;;1.83;1.20;;;11.50;99.90;;;;;;5003734;28;20453;-85
2023/10/27 00:32:21;;;;;;;6.00;1.37;;;11.50;99.90;;;;;;5019569;28;20214;-83
2023/10/27 00:34:47;;;;;;;1.10;0.83;;;11.50;99.90;;;;;;5011080;28;20186;-82
2023/10/27 00:37:12;;;;;;;3.00;1.37;;;11.50;99.90;;;;;;5004398;28;20457;-82
2023/10/27 00:39:39;;;;;;;1.83;0.90;;;;;;;;;;4996923;28;20220;-80
2023/10/27 00:42:05;;;;;;;8.00;1.35;;;;;;;;;;5017102;28;20225;-85
2023/10/27 00:44:31;;;;;;;10.00;2.80;;;11.40;99.90;;;;;;5007503;28;20179;-81
2023/10/27 00:46:56;;;;;;;3.93;1.20;;;11.20;99.90;;;;;;5001169;28;20450;-81
2023/10/27 00:49:22;;;;;;;2.70;1.30;;;11.10;99.90;;;;;;4993997;28;20754;-83
2023/10/27 00:51:49;;;;;;;6.00;1.63;;;11.00;99.90;;;;;;4998476;28;20214;-84
2023/10/27 00:54:17;;;;;;;2.20;1.58;;;11.10;99.90;;;;;;5009975;28;20566;-84
2023/10/27 00:56:44;;;;;;;4.80;2.03;;;11.10;99.90;;;;;;5010632;28;20198;-82
2023/10/27 00:59:10;;;;;;;4.72;1.60;;;;;;;;;;5019718;28;21934;-85
2023/10/27 01:01:36;;;;;;;5.35;1.70;;;;;;;;;;4987080;28;20271;-84
2023/10/27 01:04:02;;;;;;;8.40;1.90;;;11.30;99.90;;;;;;5015245;28;20619;-82
2023/10/27 01:06:28;;;;;;;3.03;1.77;;;11.30;99.90;;;;;;5000792;28;20205;-81
2023/10/27 01:08:54;;;;;;;1.70;1.00;;;11.30;99.90;;;;;;4988453;28;20297;-82
2023/10/27 01:11:21;;;;;;;3.20;1.25;;;11.20;99.90;;;;;;4988794;28;20186;-83
2023/10/27 01:13:51;;;;;;;4.55;1.15;;;11.20;99.90;;;;;;4986612;28;20208;-82
2023/10/27 01:16:16;;;;;;;4.30;1.55;;;11.10;99.90;;;;;;5009927;28;20194;-81
2023/10/27 01:18:42;;;;;;;2.60;1.60;;;;;;;;;;4986641;28;20207;-81
2023/10/27 01:21:08;;;;;;;12.90;1.97;;;11.20;99.90;;;;;;5011325;28;20206;-82
2023/10/27 01:23:33;;;;;;;2.80;1.27;;;11.20;99.90;;;;;;4991085;28;20444;-81
2023/10/27 01:25:59;;;;;;;9.00;1.00;;;11.20;99.90;;;;;;5007208;28;20340;-83
2023/10/27 01:28:24;;;;;;;2.27;1.10;;;11.20;99.90;;;;;;5001693;28;20274;-83
2023/10/27 01:30:50;;;;;;;2.10;1.90;;;11.10;99.90;;;;;;4990965;28;20190;-82
2023/10/27 01:33:15;;;;;;;5.90;1.50;;;11.10;99.90;;;;;;4994625;28;20209;-82
2023/10/27 01:35:41;;;;;;;0.97;0.83;;;11.00;99.90;;;;;;5012633;28;20278;-84
2023/10/27 01:38:07;;;;;;;1.40;1.30;;;10.90;99.90;;;;;;4995983;28;20199;-84
2023/10/27 01:40:32;;;;;;;2.30;1.40;;;13.00;99.90;;;;;;5014178;28;20288;-82
2023/10/27 01:42:58;;;;;;;7.33;1.17;;;10.90;99.90;;;;;;4998286;28;20222;-81
2023/10/27 01:45:23;;;;;;;6.17;1.10;;;;;;;;;;5021973;28;20202;-83
2023/10/27 01:47:49;;;;;;;1.20;1.10;;;11.00;99.90;;;;;;5015043;28;20549;-81
2023/10/27 01:50:15;;;;;;;2.07;1.00;;;11.00;99.90;;;;;;5001051;28;20507;-83
2023/10/27 01:52:41;;;;;;;1.57;0.93;;;;;;;;;;5000052;28;20206;-83
2023/10/27 01:55:07;;;;;;;2.10;1.23;;;10.90;99.90;;;;;;4991075;28;20210;-81
2023/10/27 01:57:32;;;;;;;4.20;0.87;;;10.80;99.90;;;;;;5008477;28;20852;-81
2023/10/27 01:59:58;;;;;;;3.03;0.63;;;10.80;99.90;;;;;;4997275;28;20871;-84
2023/10/27 02:02:24;;;;;;;5.47;1.23;;;;;;;;;;4997794;28;20218;-80
2023/10/27 02:04:49;;;;;;;3.13;1.23;;;;;;;;;;4994304;28;20182;-82
2023/10/27 02:07:15;;;;;;;7.90;1.07;;;10.70;99.90;;;;;;5008750;28;20949;-82
2023/10/27 02:09:41;;;;;;;1.97;1.13;;;10.70;99.90;;;;;;5008651;28;20479;-82
2023/10/27 02:12:10;;;;;;;9.57;1.20;;;10.70;99.90;;;;;;5016879;28;20202;-84
2023/10/27 02:14:37;;;;;;;0.93;0.93;;;10.80;99.90;;;;;;4998558;28;20198;-82
2023/10/27 02:17:03;;;;;;;0.80;0.73;;;10.80;99.90;;;;;;4995597;28;20224;-83
2023/10/27 02:19:29;;;;;;;2.03;1.30;;;;;;;;;;4995110;28;20220;-83
2023/10/27 02:21:54;;;;;;;1.97;1.13;;;11.00;99.90;;;;;;4996131;28;20213;-85
2023/10/27 02:24:20;;;;;;;1.40;1.30;;;11.10;99.90;;;;;;4994563;28;20490;-84
2023/10/27 02:26:45;;;;;;;1.37;0.80;;;11.10;99.90;;;;;;5012683;28;20281;-82
2023/10/27 02:29:11;;;;;;;5.70;1.00;;;11.20;99.90;;;;;;5009001;28;20786;-86
2023/10/27 02:31:37;;;;;;;1.27;0.93;;;;;;;;;;5009223;28;20225;-83
2023/10/27 02:34:02;;;;;;;2.10;1.13;;;11.20;99.90;;;;;;5015768;28;20618;-83
2023/10/27 02:36:28;;;;;;;12.40;1.53;;;11.10;99.90;;;;;;5002909;28;20470;-80
2023/10/27 02:38:53;;;;;;;1.00;0.77;;;11.10;99.90;;;;;;5002225;28;20601;-80
2023/10/27 02:41:19;;;;;;;1.87;1.03;;;;;;;;;;5006769;28;20228;-83
2023/10/27 02:43:45;;;;;;;3.50;2.07;;;11.10;99.90;;;;;;4998373;28;20272;-83
2023/10/27 02:46:12;;;;;;;2.67;1.10;;;;;;;;;;5007096;28;20491;-84
2023/10/27 02:48:40;;;;;;;2.03;1.10;;;;;;;;;;5002644;28;20194;-84
2023/10/27 02:51:06;;;;;;;1.17;1.08;;;11.20;99.90;;;;;;5018440;28;20174;-81
2023/10/27 02:53:32;;;;;;;0.70;0.70;;;;;;;;;;5005035;28;20821;-82
2023/10/27 02:56:05;;;;;;;0.70;0.67;;;11.20;99.90;;;;;;4996404;28;20205;-83
2023/10/27 02:58:30;;;;;;;0.60;0.60;;;11.10;99.90;;;;;;5009615;28;20448;-83
2023/10/27 03:00:56;;;;;;;4.33;0.80;;;11.00;99.90;;;;;;5013594;28;20202;-82
2023/10/27 03:03:22;;;;;;;1.23;0.70;;;11.00;99.90;;;;;;4997740;28;20320;-82
2023/10/27 03:05:47;;;;;;;0.80;0.80;;;;;;;;;;5006788;28;20253;-81
2023/10/27 03:08:13;;;;;;;3.57;1.30;;;;;;;;;;5019751;28;20201;-82
2023/10/27 03:10:39;;;;;;;1.17;0.70;;;;;;;;;;4993916;28;20442;-83
2023/10/27 03:13:08;;;;;;;2.97;1.83;;;10.90;99.90;;;;;;4998701;28;20523;-81
2023/10/27 03:15:35;;;;;;;0.68;0.60;;;10.90;99.90;;;;;;5019811;28;20512;-81
2023/10/27 03:18:01;;;;;;;1.20;0.57;;;;;;;;;;5001377;28;20309;-82
2023/10/27 03:20:28;;;;;;;2.50;1.27;;;;;;;;;;5000388;28;22134;-82
2023/10/27 03:22:53;;;;;;;1.70;1.00;;;11.10;99.90;;;;;;5010714;28;20206;-81
2023/10/27 03:25:19;;;;;;;3.17;0.70;;;;;;;;;;5004261;28;20198;-83
2023/10/27 03:27:45;;;;;;;0.67;0.57;;;10.90;99.90;;;;;;5022029;28;20673;-81
2023/10/27 03:30:11;;;;;;;1.10;0.70;;;11.00;99.90;;;;;;5000174;28;20485;-84
2023/10/27 03:32:37;;;;;;;0.80;0.60;;;;;;;;;;5019444;28;20627;-83
2023/10/27 03:35:03;;;;;;;1.98;1.15;;;10.80;99.90;;;;;;5016750;28;20257;-82
2023/10/27 03:37:29;;;;;;;0.97;0.53;;;;;;;;;;4993881;28;20194;-84
2023/10/27 03:39:56;;;;;;;0.93;0.53;;;;;;;;;;4994415;28;20453;-83
2023/10/27 03:42:21;;;;;;;0.73;0.70;;;10.70;99.90;;;;;;5001215;28;20491;-83
2023/10/27 03:44:47;;;;;;;1.70;0.70;;;;;;;;;;5016639;28;20198;-84
2023/10/27 03:47:13;;;;;;;1.37;0.80;;;10.50;99.90;;;;;;5013474;28;20183;-83
2023/10/27 03:49:38;;;;;;;1.43;1.33;;;10.50;99.90;;;;;;4997781;28;21938;-83
2023/10/27 03:52:04;;;;;;;5.20;1.10;;;10.50;99.90;;;;;;5015973;28;20472;-84
2023/10/27 03:54:30;;;;;;;0.83;0.70;;;10.60;99.90;;;;;;4999094;28;20197;-82
2023/10/27 03:56:56;;;;;;;0.70;0.60;;;10.60;99.90;;;;;;4995408;28;20198;-82
2023/10/27 03:59:21;;;;;;;1.00;0.73;;;10.60;99.90;;;;;;5007767;28;20445;-82
2023/10/27 04:01:47;;;;;;;7.33;2.17;;;10.60;99.90;;;;;;5006797;28;20253;-83
2023/10/27 04:04:12;;;;;;;2.27;1.07;;;10.60;99.90;;;;;;5013979;28;20199;-85
2023/10/27 04:06:38;;;;;;;2.40;1.23;;;10.60;99.90;;;;;;5013713;28;20941;-81
2023/10/27 04:09:04;;;;;;;8.63;1.63;;;10.40;99.90;;;;;;5015391;28;20237;-81
2023/10/27 04:11:30;;;;;;;2.72;2.05;;;10.30;99.90;;;;;;5020494;28;20221;-84
2023/10/27 04:13:56;;;;;;;0.95;0.85;;;;;;;;;;5001750;28;20274;-83
2023/10/27 04:16:22;;;;;;;2.38;1.35;;;;;;;;;;4994332;28;20257;-81
2023/10/27 04:18:48;;;;;;;2.65;1.35;;;;;;;;;;4999415;28;20197;-82
2023/10/27 04:21:14;;;;;;;2.90;1.57;;;;;;;;;;5002320;28;20218;-86
2023/10/27 04:23:40;;;;;;;1.50;0.97;;;;;;;;;;5002362;28;20763;-85
2023/10/27 04:26:06;;;;;;;2.60;1.20;;;;;;;;;;5017442;28;20453;-83
2023/10/27 04:28:32;;;;;;;2.40;1.47;;;10.20;99.90;;;;;;4993315;28;20441;-83
2023/10/27 04:30:57;;;;;;;1.30;1.20;;;10.30;99.90;;;;;;4998268;28;21370;-83
2023/10/27 04:33:24;;;;;;;1.70;1.47;;;10.40;99.90;;;;;;4993416;28;20230;-82
2023/10/27 04:35:50;;;;;;;2.38;0.95;;;10.30;99.90;;;;;;4996446;28;20195;-84
2023/10/27 04:38:16;;;;;;;1.30;1.08;;;10.30;99.90;;;;;;4993944;28;20194;-82
2023/10/27 04:40:42;;;;;;;1.30;1.20;;;;;;;;;;5020137;28;20214;-84
2023/10/27 04:43:08;;;;;;;3.07;1.30;;;;;;;;;;5010563;28;20249;-83
2023/10/27 04:45:34;;;;;;;2.40;1.23;;;;;;;;;;5003994;28;20440;-82
2023/10/27 04:48:00;;;;;;;3.43;1.80;;;;;;;;;;5003185;28;20445;-84
2023/10/27 04:50:26;;;;;;;10.47;1.70;;;;;;;;;;4988680;28;20441;-86
2023/10/27 04:52:51;;;;;;;3.73;0.87;;;10.20;99.90;;;;;;4999874;28;20837;-81
2023/10/27 04:55:18;;;;;;;2.50;1.30;;;10.20;99.90;;;;;;5008512;28;21643;-84
2023/10/27 04:57:44;;;;;;;2.88;1.33;;;10.30;99.90;;;;;;4988662;28;20220;-83
2023/10/27 05:00:11;;;;;;;1.53;1.40;;;10.30;99.90;;;;;;4994599;28;24417;-84
2023/10/27 05:02:37;;;;;;;4.03;1.50;;;10.30;99.90;;;;;;5003203;28;20210;-84
2023/10/27 05:05:03;;;;;;;2.30;1.27;;;10.30;99.90;;;;;;5007459;28;20581;-84
2023/10/27 05:07:29;;;;;;;1.10;0.93;;;;;;;;;;5019074;28;20214;-84
2023/10/27 05:09:54;;;;;;;7.43;2.20;;;10.20;99.90;;;;;;5002663;28;20464;-85
2023/10/27 05:12:20;;;;;;;1.70;1.53;;;;;;;;;;5010344;28;20456;-85
2023/10/27 05:14:46;;;;;;;0.97;0.70;;;;;;;;;;5006435;28;20194;-84
2023/10/27 05:17:13;;;;;;;1.20;1.10;;;10.30;99.90;;;;;;4999586;28;20452;-83
2023/10/27 05:19:38;;;;;;;1.70;1.30;;;;;;;;;;5004485;28;21050;-86
2023/10/27 05:22:05;;;;;;;3.70;1.33;;;10.30;99.90;;;;;;4982912;28;20209;-83
2023/10/27 05:24:34;;;;;;;1.90;1.50;;;10.20;99.90;;;;;;4992439;28;20995;-86
2023/10/27 05:27:01;;;;;;;2.05;0.90;;;10.20;99.90;;;;;;5005417;28;20202;-84
2023/10/27 05:29:26;;;;;;;2.35;1.38;;;;;;;;;;5004064;28;20233;-87
2023/10/27 05:31:53;;;;;;;0.70;0.53;;;10.10;99.90;;;;;;4996882;28;20215;-84
2023/10/27 05:34:18;;;;;;;2.50;1.83;;;10.10;99.90;;;;;;5000642;28;20445;-85
2023/10/27 05:36:44;;;;;;;2.10;1.50;;;;;;;;;;4998988;28;20363;-85
2023/10/27 05:39:16;;;;;;;1.10;0.90;;;;;;;;;;4993679;28;20198;-82
2023/10/27 05:41:46;;;;;;;0.80;0.60;;;10.00;99.90;;;;;;5022469;28;20236;-84
2023/10/27 05:44:13;;;;;;;0.80;0.73;;;10.00;99.90;;;;;;5010301;28;20221;-85
2023/10/27 05:46:38;;;;;;;2.13;1.35;;;10.00;99.90;;;;;;4994832;28;20187;-84
2023/10/27 05:49:04;;;;;;;2.03;1.50;;;;;;;;;;4997659;28;20190;-83
2023/10/27 05:51:34;;;;;;;1.13;0.90;;;10.00;99.90;;;;;;5001479;28;20218;-84
2023/10/27 05:54:00;;;;;;;4.20;1.40;;;10.00;99.90;;;;;;5014844;28;20194;-84
2023/10/27 05:56:27;;;;;;;2.60;0.73;;;10.00;99.90;;;;;;5016436;28;20594;-84
2023/10/27 05:58:53;;;;;;;1.85;1.15;;;10.60;99.90;;;;;;5003820;28;20216;-84
2023/10/27 06:01:19;;;;;;;0.63;0.63;;;;;;;;;;5007512;28;20588;-86
2023/10/27 06:03:45;;;;;;;1.35;1.00;;;;;;;;;;5003217;28;20437;-84
2023/10/27 06:06:12;;;;;;;1.05;0.95;;;9.90;99.90;;;;;;5004126;28;20194;-86
2023/10/27 06:08:44;;;;;;;1.70;0.90;;;;;;;;;;5015634;28;20182;-85
2023/10/27 06:11:09;;;;;;;0.95;0.80;;;;;;;;;;5008353;28;20278;-84
2023/10/27 06:13:35;;;;;;;1.87;0.93;;;;;;;;;;5012714;28;20429;-85
2023/10/27 06:16:02;;;;;;;0.70;0.53;;;;;;;;;;4999467;28;21337;-85
2023/10/27 06:18:28;;;;;;;0.77;0.77;;;;;;;;;;5002933;28;20680;-85
2023/10/27 06:20:54;;;;;;;0.65;0.50;;;;;;;;;;5019251;28;20210;-84
2023/10/27 06:23:24;;;;;;;0.60;0.40;;;9.90;99.90;;;;;;5009118;28;20206;-85
2023/10/27 06:25:50;;;;;;;1.00;0.95;;;;;;;;;;5025961;28;20482;-87
2023/10/27 06:28:16;;;;;;;0.60;0.60;;;;;;;;;;4996287;28;20225;-84
2023/10/27 06:30:42;;;;;;;0.50;0.50;;;;;;;;;;4995543;28;20544;-85
2023/10/27 06:33:07;;;;;;;0.80;0.67;;;9.90;99.90;;;;;;5002554;28;20465;-85
2023/10/27 06:35:33;;;;;;;2.43;0.90;;;;;;;;;;5003437;28;20499;-85
2023/10/27 06:37:59;;;;;;;1.67;0.90;;;;;;;;;;5003466;28;20190;-84
2023/10/27 06:40:25;;;;;;;0.80;0.60;;;10.00;99.90;;;;;;5001449;28;20555;-86
2023/10/27 06:42:51;;;;;;;0.47;0.47;;;;;;;;;;4999450;28;20537;-85
2023/10/27 06:45:17;;;;;;;3.33;0.52;;;10.00;99.90;;;;;;5017553;28;20194;-82
2023/10/27 06:47:43;;;;;;;0.40;0.40;;;;;;;;;;5013635;28;21113;-86
2023/10/27 06:50:09;;;;;;;0.50;0.47;;;10.00;99.90;;;;;;5017195;28;20265;-85
2023/10/27 06:52:35;;;;;;;1.63;1.30;;;10.00;99.90;;;;;;5007718;28;20472;-86
2023/10/27 06:55:01;;;;;;;1.90;1.30;;;10.00;99.90;;;;;;5005181;28;20208;-84
2023/10/27 06:57:27;;;;;;;0.90;0.53;;;;;;;;;;5012634;28;20265;-87
2023/10/27 06:59:56;;;;;;;1.05;0.60;;;;;;;;;;4999722;28;20537;-85
2023/10/27 07:02:23;;;;;;;0.73;0.55;;;10.00;99.90;;;;;;4998998;28;20268;-84
2023/10/27 07:04:49;;;;;;;1.30;1.20;;;10.00;99.90;;;;;;5017837;28;20583;-84
2023/10/27 07:07:15;;;;;;;1.03;1.03;;;10.10;99.90;;;;;;5013867;28;20201;-86
2023/10/27 07:09:41;;;;;;;0.50;0.43;;;10.20;99.90;;;;;;5003993;28;20178;-86
2023/10/27 07:12:08;;;;;;;0.50;0.50;;;10.20;99.90;;;;;;5016064;28;20210;-83
2023/10/27 07:14:34;;;;;;;0.40;0.38;;;;;;;;;;5016673;28;20986;-84
2023/10/27 07:17:00;;;;;;;0.50;0.50;;;10.40;99.90;;;;;;5002073;28;20207;-82
2023/10/27 07:19:26;;;;;;;0.80;0.40;;;;;;;;;;5021301;28;20445;-81
2023/10/27 07:21:51;;;;;;;0.77;0.77;;;10.80;99.90;;;;;;5003334;28;20375;-83
2023/10/27 07:24:17;;;;;;;0.53;0.50;;;13.00;99.90;;;;;;5008080;28;20445;-84
2023/10/27 07:26:43;;;;;;;0.30;0.30;;;11.40;99.90;;;;;;5007878;28;20471;-83
2023/10/27 07:29:09;;;;;;;0.50;0.43;;;;;;;;;;5023524;28;20655;-84
2023/10/27 07:31:35;;;;;;;0.60;0.30;;;;;;;;;;5012365;28;20216;-84
2023/10/27 07:34:01;;;;;;;3.97;0.77;;;;;;;;;;5025310;28;20719;-84
2023/10/27 07:36:27;;;;;;;0.40;0.30;;;;;;;;;;5018365;28;22345;-84
2023/10/27 07:38:53;;;;;;;0.40;0.30;;;;;;;;;;5024847;28;20200;-81
2023/10/27 07:41:19;;;;;;;1.20;0.57;;;;;;;;;;5025013;28;20471;-84
2023/10/27 07:43:44;;;;;;;0.40;0.30;;;13.00;99.90;;;;;;5021986;28;20441;-84
2023/10/27 07:46:11;;;;;;;0.60;0.40;;;13.30;99.90;;;;;;4997892;28;20455;-83
2023/10/27 07:48:37;;;;;;;0.40;0.30;;;;;;;;;;5016707;28;20235;-84
2023/10/27 07:51:03;;;;;;;1.17;1.07;;;14.60;99.90;;;;;;5004981;28;20438;-85
2023/10/27 07:53:29;;;;;;;1.07;0.40;;;;;;;;;;4995157;28;20467;-83
2023/10/27 07:55:56;;;;;;;0.93;0.40;;;13.20;99.90;;;;;;4993922;28;20446;-82
2023/10/27 07:58:23;;;;;;;0.40;0.20;;;13.20;99.90;;;;;;5011137;28;20449;-82
2023/10/27 08:00:51;;;;;;;0.50;0.40;;;;;;;;;;5019449;28;20485;-84
2023/10/27 08:03:17;;;;;;;1.07;0.67;;;;;;;;;;5005033;28;20493;-82
2023/10/27 08:05:43;;;;;;;0.77;0.50;;;;;;;;;;5021956;28;20491;-83
2023/10/27 08:08:09;;;;;;;0.40;0.30;;;;;;;;;;5004676;28;20560;-83
2023/10/27 08:10:38;;;;;;;0.60;0.38;;;12.20;99.90;;;;;;5026306;28;23000;-82
2023/10/27 08:13:05;;;;;;;0.50;0.30;;;;;;;;;;5013910;28;20226;-80
2023/10/27 08:15:31;;;;;;;0.40;0.20;;;;;;;;;;5029405;28;20189;-83
2023/10/27 08:17:57;;;;;;;0.60;0.40;;;;;;;;;;5003579;28;20440;-80
2023/10/27 08:20:23;;;;;;;0.40;0.33;;;;;;;;;;5004770;28;20437;-81
2023/10/27 08:22:49;;;;;;;0.50;0.33;;;;;;;;;;5023552;28;20533;-81
2023/10/27 08:25:15;;;;;;;1.10;0.53;;;12.10;99.90;;;;;;5020618;28;20467;-80
2023/10/27 08:27:40;;;;;;;0.80;0.30;;;12.20;99.90;;;;;;5015667;28;20448;-80
2023/10/27 08:30:06;;;;;;;2.13;0.70;;;11.90;99.90;;;;;;5018189;28;20217;-82
2023/10/27 08:32:32;;;;;;;0.90;0.73;;;;;;;;;;5023921;28;20592;-84
2023/10/27 08:34:58;;;;;;;0.70;0.50;;;;;;;;;;5009894;28;20205;-84
2023/10/27 08:37:25;;;;;;;1.00;0.40;;;;;;;;;;5018330;28;20449;-83
2023/10/27 08:39:52;;;;;;;0.77;0.40;;;11.70;99.90;;;;;;5014138;28;20469;-85
2023/10/27 08:42:18;;;;;;;0.40;0.30;;;11.60;99.90;;;;;;5018185;28;20214;-81
2023/10/27 08:44:44;;;;;;;0.93;0.40;;;;;;;;;;4996702;28;20595;-82
2023/10/27 08:47:10;;;;;;;0.40;0.30;;;11.60;99.90;;;;;;5005272;28;20218;-83
2023/10/27 08:49:37;;;;;;;0.70;0.60;;;11.60;99.90;;;;;;5023354;28;20194;-85
2023/10/27 08:52:04;;;;;;;0.60;0.43;;;12.20;99.90;;;;;;5003067;28;20218;-84
2023/10/27 08:54:31;;;;;;;0.40;0.30;;;;;;;;;;5004903;28;20183;-84
2023/10/27 08:56:57;;;;;;;0.40;0.32;;;;;;;;;;5017115;28;20225;-84
2023/10/27 08:59:23;;;;;;;0.43;0.40;;;11.50;99.90;;;;;;5004769;28;20194;-82
2023/10/27 09:01:53;;;;;;;1.80;0.47;;;11.50;99.90;;;;;;5005258;28;20274;-84
2023/10/27 09:04:20;;;;;;;1.77;0.65;;;11.80;99.90;;;;;;5018419;28;20272;-83
2023/10/27 09:06:46;;;;;;;0.65;0.40;;;;;;;;;;5010805;28;20224;-84
2023/10/27 09:09:12;;;;;;;2.15;0.40;;;11.80;99.90;;;;;;5009485;28;20253;-83
2023/10/27 09:11:48;;;;;;;0.60;0.40;;;11.90;99.90;;;;;;4996831;28;20218;-82
2023/10/27 09:14:20;;;;;;;1.50;0.60;;;12.40;99.90;;;;;;4993511;28;20249;-81
2023/10/27 09:16:47;;;;;;;0.55;0.50;;;;;;;;;;4997257;28;20191;-83
2023/10/27 09:19:22;;;;;;;0.40;0.30;;;12.70;99.90;;;;;;5000799;28;20851;-83
2023/10/27 09:21:48;;;;;;;0.40;0.30;;;12.40;99.90;;;;;;5011494;28;20335;-85
2023/10/27 09:24:28;;;;;;;1.90;0.60;;;12.30;99.90;;;;;;5006045;28;20311;-86
2023/10/27 09:26:56;;;;;;;1.38;0.57;;;12.30;99.90;;;;;;5015966;28;20471;-81
2023/10/27 09:29:22;;;;;;;0.60;0.30;;;;;;;;;;5018037;28;20198;-83
2023/10/27 09:31:50;;;;;;;0.40;0.30;;;12.40;99.90;;;;;;5001990;28;20255;-86
2023/10/27 09:34:17;;;;;;;1.58;0.55;;;;;;;;;;5014417;28;20191;-80
2023/10/27 09:36:50;;;;;;;0.40;0.40;;;12.30;99.90;;;;;;5000889;28;20322;-84
2023/10/27 09:39:19;;;;;;;0.60;0.40;;;12.10;99.90;;;;;;5010310;28;20187;-81
2023/10/27 09:42:05;;;;;;;0.40;0.37;;;12.10;99.90;;;;;;5014228;28;20218;-83
2023/10/27 09:45:06;;;;;;;0.65;0.40;;;12.20;99.90;;;;;;5003881;28;20440;-85
2023/10/27 09:47:42;;;;;;;0.35;0.30;;;12.30;99.90;;;;;;4993891;28;20182;-84
2023/10/27 09:50:17;;;;;;;1.25;0.40;;;12.30;99.90;;;;;;5018888;28;20197;-85
2023/10/27 09:52:46;;;;;;;0.40;0.20;;;12.30;99.90;;;;;;5033384;28;20201;-81
2023/10/27 09:55:13;;;;;;;0.40;0.30;;;12.30;99.90;;;;;;5007529;28;20225;-86
2023/10/27 09:57:42;;;;;;;0.43;0.40;;;12.40;99.90;;;;;;5003125;28;20190;-84
2023/10/27 10:00:10;;;;;;;0.40;0.30;;;12.40;99.90;;;;;;5019206;28;20448;-83
2023/10/27 10:02:36;;;;;;;0.40;0.30;;;;;;;;;;5003483;28;20475;-86
2023/10/27 10:05:02;;;;;;;0.75;0.45;;;;;;;;;;4996589;28;20440;-84
2023/10/27 10:07:28;;;;;;;2.35;0.30;;;;;;;;;;4993348;28;21027;-81
2023/10/27 10:09:54;;;;;;;0.60;0.43;;;;;;;;;;5000736;28;20272;-83
2023/10/27 10:12:21;;;;;;;0.40;0.40;;;;;;;;;;5000947;28;20477;-84
2023/10/27 10:14:50;;;;;;;0.50;0.30;;;12.50;99.90;;;;;;5022252;28;20205;-84
2023/10/27 10:17:41;;;;;;;1.35;0.40;;;13.50;99.90;;;;;;5000528;28;20480;-82
2023/10/27 10:20:09;;;;;;;0.65;0.35;;;12.30;99.90;;;;;;5001341;28;20194;-83
2023/10/27 10:22:40;;;;;;;4.40;0.77;;;12.50;99.90;;;;;;5004452;28;20240;-84
2023/10/27 10:25:17;;;;;;;1.02;0.52;;;12.60;99.90;;;;;;5000597;28;20193;-85
2023/10/27 10:28:08;;;;;;;2.40;0.80;;;12.50;99.90;;;;;;5018876;28;20644;-82
2023/10/27 10:30:38;;;;;;;1.05;0.70;;;12.30;99.90;;;;;;5017283;28;20511;-82
2023/10/27 10:33:27;;;;;;;3.50;0.30;;;12.20;99.90;;;;;;4997530;28;21672;-84
2023/10/27 10:36:18;;;;;;;4.00;0.52;;;11.90;99.90;;;;;;5014796;28;20441;-83
2023/10/27 10:38:55;;;;;;;1.05;0.45;;;11.80;99.90;;;;;;4986666;28;20858;-83
2023/10/27 10:41:21;;;;;;;1.40;0.60;;;11.70;99.90;;;;;;5021786;28;20224;-85
2023/10/27 10:44:13;;;;;;;1.25;0.65;;;11.70;99.90;;;;;;4997165;28;20190;-84
2023/10/27 10:46:39;;;;;;;0.93;0.73;;;;;;;;;;4987849;28;20194;-84
2023/10/27 10:49:06;;;;;;;0.50;0.40;;;;;;;;;;5012560;28;20209;-79
2023/10/27 10:51:38;;;;;;;0.93;0.77;;;;;;;;;;5022889;28;20449;-82
2023/10/27 10:54:13;;;;;;;1.60;0.70;;;12.50;99.90;;;;;;5018426;28;20445;-82
2023/10/27 10:56:39;;;;;;;1.80;0.67;;;;;;;;;;5021751;28;20802;-81
2023/10/27 10:59:05;;;;;;;1.07;0.60;;;;;;;;;;4998050;28;20450;-82
2023/10/27 11:01:31;;;;;;;1.80;0.77;;;;;;;;;;4999483;28;20544;-86
2023/10/27 11:03:57;;;;;;;1.10;0.70;;;12.80;99.90;;;;;;4995551;28;20447;-82
2023/10/27 11:06:25;;;;;;;0.50;0.40;;;12.80;99.90;;;;;;5003266;28;20449;-83
2023/10/27 11:08:51;;;;;;;0.50;0.50;;;12.90;99.90;;;;;;4991807;28;20982;-84
2023/10/27 11:11:18;;;;;;;0.50;0.40;;;12.80;99.90;;;;;;5008322;28;20547;-84
2023/10/27 11:13:49;;;;;;;3.45;2.03;;;12.70;99.90;;;;;;4992579;28;20872;-83
2023/10/27 11:16:21;;;;;;;0.70;0.30;;;12.70;99.90;;;;;;5009256;28;20190;-84
2023/10/27 11:18:49;;;;;;;2.63;0.60;;;12.50;99.90;;;;;;5014122;28;21444;-83
2023/10/27 11:21:22;;;;;;;1.80;0.70;;;12.40;99.90;;;;;;4991384;28;20485;-82
2023/10/27 11:23:50;;;;;;;2.55;0.95;;;12.40;99.90;;;;;;5016775;28;20441;-82
2023/10/27 11:26:18;;;;;;;2.80;0.85;;;12.30;99.90;;;;;;5006351;28;20257;-84
2023/10/27 11:28:45;;;;;;;1.33;0.57;;;12.30;99.90;;;;;;5004364;28;20861;-82
2023/10/27 11:31:22;;;;;;;1.23;0.60;;;12.30;99.90;;;;;;5015890;28;21168;-83
2023/10/27 11:34:02;;;;;;;0.80;0.50;;;12.40;99.90;;;;;;4995116;28;20244;-84
2023/10/27 11:36:32;;;;;;;0.80;0.60;;;12.50;99.90;;;;;;5004553;28;20206;-84
2023/10/27 11:39:13;;;;;;;5.90;0.77;;;12.70;99.90;;;;;;5003383;28;20441;-85
2023/10/27 11:41:40;;;;;;;1.23;0.50;;;12.60;99.90;;;;;;4994710;28;20473;-82
2023/10/27 11:44:06;;;;;;;3.50;0.55;;;;;;;;;;5016043;28;20195;-82
2023/10/27 11:46:33;;;;;;;2.57;0.70;;;12.00;99.90;;;;;;5004766;28;20201;-80
2023/10/27 11:48:59;;;;;;;2.08;0.70;;;;;;;;;;5013086;28;20473;-83
2023/10/27 11:51:25;;;;;;;1.57;1.47;;;;;;;;;;4993037;28;20252;-84
2023/10/27 11:53:51;;;;;;;0.68;0.60;;;12.00;99.90;;;;;;5001972;28;21015;-80
2023/10/27 11:56:17;;;;;;;1.23;0.73;;;;;;;;;;5002057;28;20828;-83
2023/10/27 11:58:44;;;;;;;2.33;2.00;;;;;;;;;;5002081;28;20490;-82
2023/10/27 12:01:09;;;;;;;4.88;1.05;;;12.40;99.90;;;;;;4994584;28;20465;-82
2023/10/27 12:03:35;;;;;;;1.30;1.20;;;12.40;99.90;;;;;;5014365;28;20213;-82
2023/10/27 12:06:00;;;;;;;0.93;0.63;;;12.50;99.90;;;;;;4992745;28;20182;-83
2023/10/27 12:08:26;;;;;;;2.53;0.80;;;;;;;;;;5004313;28;20197;-81
2023/10/27 12:10:52;;;;;;;0.67;0.50;;;;;;;;;;5021878;28;20261;-80
2023/10/27 12:13:22;;;;;;;1.13;0.80;;;12.50;99.90;;;;;;5016335;28;20461;-83
2023/10/27 12:15:48;;;;;;;2.30;0.60;;;;;;;;;;5006419;28;20448;-84
2023/10/27 12:18:15;;;;;;;2.15;0.50;;;12.20;99.90;;;;;;5001211;28;20445;-81
2023/10/27 12:20:41;;;;;;;1.95;0.70;;;12.20;99.90;;;;;;5008267;28;20770;-82
2023/10/27 12:23:07;;;;;;;0.73;0.50;;;12.20;99.90;;;;;;4985036;28;20214;-80
2023/10/27 12:25:34;;;;;;;4.82;0.65;;;;;;;;;;4995079;28;20480;-84
2023/10/27 12:27:59;;;;;;;0.73;0.73;;;11.90;99.90;;;;;;5011324;28;20205;-82
2023/10/27 12:30:25;;;;;;;2.50;0.30;;;11.60;99.90;;;;;;5013669;28;20202;-83
2023/10/27 12:32:53;;;;;;;0.40;0.20;;;;;;;;;;5000422;28;20213;-83
2023/10/27 12:35:21;;;;;;;0.40;0.30;;;10.80;99.90;;;;;;4993534;28;20198;-82
2023/10/27 12:37:53;;;;;;;0.60;0.40;;;10.80;99.90;;;;;;5012842;28;20182;-84
2023/10/27 12:40:24;;;;;;;0.40;0.30;;;10.70;99.90;;;;;;5017545;28;20193;-82
2023/10/27 12:42:53;;;;;;;5.30;1.23;;;10.70;99.90;;;;;;4996690;28;20218;-84
2023/10/27 12:45:19;;;;;;;0.40;0.30;;;10.90;99.90;;;;;;5001325;28;20188;-82
2023/10/27 12:47:46;;;;;;;0.40;0.30;;;11.20;99.90;;;;;;5016976;28;20265;-82
2023/10/27 12:50:12;;;;;;;0.50;0.40;;;;;;;;;;5003317;28;20190;-83
2023/10/27 12:52:38;;;;;;;0.40;0.40;;;;;;;;;;4996444;28;20218;-82
2023/10/27 12:55:09;;;;;;;0.40;0.30;;;11.60;99.90;;;;;;5005264;28;20271;-84
2023/10/27 12:57:36;;;;;;;0.40;0.37;;;;;;;;;;4999492;28;20441;-83
2023/10/27 13:00:11;;;;;;;0.90;0.73;;;;;;;;;;5002624;28;20445;-81
2023/10/27 13:02:37;;;;;;;0.73;0.50;;;;;;;;;;5009711;28;20993;-83
2023/10/27 13:05:02;;;;;;;1.00;0.73;;;;;;;;;;5023914;28;20190;-85
2023/10/27 13:07:28;;;;;;;0.50;0.40;;;;;;;;;;5015944;28;20472;-80
2023/10/27 13:09:54;;;;;;;1.33;0.80;;;12.60;99.90;;;;;;5015622;28;20460;-82
2023/10/27 13:12:23;;;;;;;0.67;0.60;;;12.50;99.90;;;;;;5006136;28;20465;-82
2023/10/27 13:14:50;;;;;;;3.13;0.82;;;12.50;99.90;;;;;;4995677;28;20201;-80
2023/10/27 13:17:16;;;;;;;2.30;0.53;;;12.50;99.90;;;;;;4993375;28;20202;-80
2023/10/27 13:19:42;;;;;;;0.40;0.30;;;;;;;;;;5015685;28;20480;-80
2023/10/27 13:22:08;;;;;;;1.90;0.30;;;;;;;;;;4989555;28;20257;-83
2023/10/27 13:24:34;;;;;;;0.40;0.30;;;12.60;99.90;;;;;;4987588;28;20459;-80
2023/10/27 13:27:00;;;;;;;0.40;0.40;;;;;;;;;;5007002;28;20456;-82